sensor_id;sensor_type;location;lat;lon;timestamp;temperature;humidity
79513;SHT31;68962;51.980;5.678;2023-07-30T00:02:23;17.8;67.2
79513;SHT31;68962;51.980;5.678;2023-07-30T00:04:52;17.7;67.4
79513;SHT31;68962;51.980;5.678;2023-07-30T00:07:20;17.7;67.6
79513;SHT31;68962;51.980;5.678;2023-07-30T00:09:49;17.7;67.7
79513;SHT31;68962;51.980;5.678;2023-07-30T00:12:17;17.6;67.6
79513;SHT31;68962;51.980;5.678;2023-07-30T00:14:46;17.6;67.6
79513;SHT31;68962;51.980;5.678;2023-07-30T00:17:14;17.6;67.7
79513;SHT31;68962;51.980;5.678;2023-07-30T00:19:43;17.5;67.8
79513;SHT31;68962;51.980;5.678;2023-07-30T00:22:11;17.5;67.7
79513;SHT31;68962;51.980;5.678;2023-07-30T00:24:40;17.5;67.9
79513;SHT31;68962;51.980;5.678;2023-07-30T00:27:10;17.4;67.8
79513;SHT31;68962;51.980;5.678;2023-07-30T00:29:39;17.4;67.7
79513;SHT31;68962;51.980;5.678;2023-07-30T00:32:08;17.4;67.8
79513;SHT31;68962;51.980;5.678;2023-07-30T00:34:37;17.4;67.6
79513;SHT31;68962;51.980;5.678;2023-07-30T00:37:06;17.4;67.5
79513;SHT31;68962;51.980;5.678;2023-07-30T00:39:35;17.3;67.6
79513;SHT31;68962;51.980;5.678;2023-07-30T00:42:03;17.3;67.3
79513;SHT31;68962;51.980;5.678;2023-07-30T00:44:32;17.3;67.3
79513;SHT31;68962;51.980;5.678;2023-07-30T00:47:01;17.3;67.4
79513;SHT31;68962;51.980;5.678;2023-07-30T00:49:29;17.3;67.1
79513;SHT31;68962;51.980;5.678;2023-07-30T00:51:58;17.3;67.2
79513;SHT31;68962;51.980;5.678;2023-07-30T00:54:27;17.3;67.2
79513;SHT31;68962;51.980;5.678;2023-07-30T00:56:58;17.3;67.2
79513;SHT31;68962;51.980;5.678;2023-07-30T00:59:26;17.3;67.2
79513;SHT31;68962;51.980;5.678;2023-07-30T01:01:58;17.3;67.4
79513;SHT31;68962;51.980;5.678;2023-07-30T01:04:28;17.3;66.9
79513;SHT31;68962;51.980;5.678;2023-07-30T01:06:58;17.3;66.9
79513;SHT31;68962;51.980;5.678;2023-07-30T01:09:26;17.3;66.8
79513;SHT31;68962;51.980;5.678;2023-07-30T01:11:56;17.3;66.8
79513;SHT31;68962;51.980;5.678;2023-07-30T01:14:24;17.3;66.8
79513;SHT31;68962;51.980;5.678;2023-07-30T01:16:54;17.3;66.8
79513;SHT31;68962;51.980;5.678;2023-07-30T01:19:24;17.3;66.9
79513;SHT31;68962;51.980;5.678;2023-07-30T01:21:53;17.3;66.9
79513;SHT31;68962;51.980;5.678;2023-07-30T01:24:22;17.3;66.8
79513;SHT31;68962;51.980;5.678;2023-07-30T01:26:56;17.3;67.1
79513;SHT31;68962;51.980;5.678;2023-07-30T01:29:40;17.3;67.1
79513;SHT31;68962;51.980;5.678;2023-07-30T01:32:08;17.3;67.3
79513;SHT31;68962;51.980;5.678;2023-07-30T01:34:41;17.3;67.7
79513;SHT31;68962;51.980;5.678;2023-07-30T01:37:12;17.3;67.5
79513;SHT31;68962;51.980;5.678;2023-07-30T01:39:42;17.3;67.2
79513;SHT31;68962;51.980;5.678;2023-07-30T01:42:13;17.4;67.2
79513;SHT31;68962;51.980;5.678;2023-07-30T01:44:44;17.4;67.0
79513;SHT31;68962;51.980;5.678;2023-07-30T01:47:12;17.3;67.2
79513;SHT31;68962;51.980;5.678;2023-07-30T01:49:41;17.3;67.1
79513;SHT31;68962;51.980;5.678;2023-07-30T01:52:09;17.3;67.5
79513;SHT31;68962;51.980;5.678;2023-07-30T01:54:40;17.3;67.8
79513;SHT31;68962;51.980;5.678;2023-07-30T01:57:08;17.3;67.8
79513;SHT31;68962;51.980;5.678;2023-07-30T01:59:39;17.3;67.8
79513;SHT31;68962;51.980;5.678;2023-07-30T02:02:07;17.2;67.9
79513;SHT31;68962;51.980;5.678;2023-07-30T02:04:38;17.2;67.9
79513;SHT31;68962;51.980;5.678;2023-07-30T02:07:06;17.2;68.1
79513;SHT31;68962;51.980;5.678;2023-07-30T02:09:35;17.2;68.1
79513;SHT31;68962;51.980;5.678;2023-07-30T02:12:04;17.3;68.3
79513;SHT31;68962;51.980;5.678;2023-07-30T02:14:33;17.3;67.9
79513;SHT31;68962;51.980;5.678;2023-07-30T02:17:02;17.3;67.8
79513;SHT31;68962;51.980;5.678;2023-07-30T02:19:30;17.3;67.9
79513;SHT31;68962;51.980;5.678;2023-07-30T02:21:59;17.3;68.0
79513;SHT31;68962;51.980;5.678;2023-07-30T02:24:27;17.3;68.0
79513;SHT31;68962;51.980;5.678;2023-07-30T02:26:56;17.4;68.2
79513;SHT31;68962;51.980;5.678;2023-07-30T02:29:24;17.4;68.2
79513;SHT31;68962;51.980;5.678;2023-07-30T02:31:54;17.4;68.3
79513;SHT31;68962;51.980;5.678;2023-07-30T02:34:22;17.4;68.4
79513;SHT31;68962;51.980;5.678;2023-07-30T02:36:53;17.4;68.5
79513;SHT31;68962;51.980;5.678;2023-07-30T02:39:22;17.4;68.6
79513;SHT31;68962;51.980;5.678;2023-07-30T02:41:51;17.4;68.7
79513;SHT31;68962;51.980;5.678;2023-07-30T02:44:19;17.4;68.8
79513;SHT31;68962;51.980;5.678;2023-07-30T02:46:48;17.4;69.0
79513;SHT31;68962;51.980;5.678;2023-07-30T02:49:16;17.4;69.2
79513;SHT31;68962;51.980;5.678;2023-07-30T02:51:45;17.4;69.3
79513;SHT31;68962;51.980;5.678;2023-07-30T02:54:15;17.4;69.6
79513;SHT31;68962;51.980;5.678;2023-07-30T02:56:47;17.4;69.9
79513;SHT31;68962;51.980;5.678;2023-07-30T02:59:15;17.3;70.2
79513;SHT31;68962;51.980;5.678;2023-07-30T03:01:44;17.3;70.5
79513;SHT31;68962;51.980;5.678;2023-07-30T03:04:12;17.3;70.6
79513;SHT31;68962;51.980;5.678;2023-07-30T03:06:41;17.3;70.8
79513;SHT31;68962;51.980;5.678;2023-07-30T03:09:09;17.3;71.0
79513;SHT31;68962;51.980;5.678;2023-07-30T03:11:38;17.3;71.2
79513;SHT31;68962;51.980;5.678;2023-07-30T03:14:06;17.3;71.4
79513;SHT31;68962;51.980;5.678;2023-07-30T03:16:35;17.3;71.5
79513;SHT31;68962;51.980;5.678;2023-07-30T03:19:03;17.3;71.6
79513;SHT31;68962;51.980;5.678;2023-07-30T03:21:32;17.3;72.0
79513;SHT31;68962;51.980;5.678;2023-07-30T03:24:01;17.4;71.7
79513;SHT31;68962;51.980;5.678;2023-07-30T03:26:30;17.4;71.7
79513;SHT31;68962;51.980;5.678;2023-07-30T03:28:59;17.4;71.7
79513;SHT31;68962;51.980;5.678;2023-07-30T03:31:29;17.4;71.9
79513;SHT31;68962;51.980;5.678;2023-07-30T03:34:04;17.4;72.3
79513;SHT31;68962;51.980;5.678;2023-07-30T03:36:33;17.4;72.2
79513;SHT31;68962;51.980;5.678;2023-07-30T03:39:02;17.4;71.9
79513;SHT31;68962;51.980;5.678;2023-07-30T03:41:30;17.4;71.9
79513;SHT31;68962;51.980;5.678;2023-07-30T03:43:59;17.4;72.0
79513;SHT31;68962;51.980;5.678;2023-07-30T03:46:27;17.4;72.2
79513;SHT31;68962;51.980;5.678;2023-07-30T03:48:56;17.3;72.5
79513;SHT31;68962;51.980;5.678;2023-07-30T03:51:24;17.3;72.8
79513;SHT31;68962;51.980;5.678;2023-07-30T03:53:53;17.3;73.1
79513;SHT31;68962;51.980;5.678;2023-07-30T03:56:22;17.3;73.2
79513;SHT31;68962;51.980;5.678;2023-07-30T03:58:51;17.3;73.4
79513;SHT31;68962;51.980;5.678;2023-07-30T04:01:20;17.3;73.6
79513;SHT31;68962;51.980;5.678;2023-07-30T04:03:49;17.3;73.7
79513;SHT31;68962;51.980;5.678;2023-07-30T04:06:17;17.3;73.7
79513;SHT31;68962;51.980;5.678;2023-07-30T04:08:46;17.3;73.8
79513;SHT31;68962;51.980;5.678;2023-07-30T04:11:14;17.3;73.8
79513;SHT31;68962;51.980;5.678;2023-07-30T04:13:43;17.4;73.8
79513;SHT31;68962;51.980;5.678;2023-07-30T04:16:12;17.4;73.9
79513;SHT31;68962;51.980;5.678;2023-07-30T04:18:40;17.4;74.1
79513;SHT31;68962;51.980;5.678;2023-07-30T04:21:09;17.4;74.1
79513;SHT31;68962;51.980;5.678;2023-07-30T04:23:40;17.5;74.3
79513;SHT31;68962;51.980;5.678;2023-07-30T04:26:08;17.7;73.9
79513;SHT31;68962;51.980;5.678;2023-07-30T04:28:37;17.8;73.4
79513;SHT31;68962;51.980;5.678;2023-07-30T04:31:05;18.0;72.9
79513;SHT31;68962;51.980;5.678;2023-07-30T04:33:43;18.1;72.3
79513;SHT31;68962;51.980;5.678;2023-07-30T04:36:12;18.3;71.8
79513;SHT31;68962;51.980;5.678;2023-07-30T04:38:40;18.4;71.3
79513;SHT31;68962;51.980;5.678;2023-07-30T04:41:09;18.5;70.9
79513;SHT31;68962;51.980;5.678;2023-07-30T04:43:37;18.6;70.5
79513;SHT31;68962;51.980;5.678;2023-07-30T04:46:06;18.7;70.0
79513;SHT31;68962;51.980;5.678;2023-07-30T04:48:36;18.8;69.7
79513;SHT31;68962;51.980;5.678;2023-07-30T04:51:06;18.9;69.4
79513;SHT31;68962;51.980;5.678;2023-07-30T04:53:35;19.0;69.3
79513;SHT31;68962;51.980;5.678;2023-07-30T04:58:30;19.1;68.7
79513;SHT31;68962;51.980;5.678;2023-07-30T05:00:59;19.1;68.3
79513;SHT31;68962;51.980;5.678;2023-07-30T05:03:27;19.0;68.4
79513;SHT31;68962;51.980;5.678;2023-07-30T05:05:56;19.0;68.7
79513;SHT31;68962;51.980;5.678;2023-07-30T05:08:24;18.9;69.0
79513;SHT31;68962;51.980;5.678;2023-07-30T05:10:53;18.8;69.1
79513;SHT31;68962;51.980;5.678;2023-07-30T05:13:23;18.8;69.6
79513;SHT31;68962;51.980;5.678;2023-07-30T05:15:52;18.7;70.0
79513;SHT31;68962;51.980;5.678;2023-07-30T05:18:20;18.6;70.3
79513;SHT31;68962;51.980;5.678;2023-07-30T05:20:51;18.6;70.6
79513;SHT31;68962;51.980;5.678;2023-07-30T05:23:20;18.5;70.9
79513;SHT31;68962;51.980;5.678;2023-07-30T05:25:49;18.5;71.2
79513;SHT31;68962;51.980;5.678;2023-07-30T05:28:19;18.5;71.1
79513;SHT31;68962;51.980;5.678;2023-07-30T05:30:48;18.5;71.3
79513;SHT31;68962;51.980;5.678;2023-07-30T05:33:16;18.6;71.5
79513;SHT31;68962;51.980;5.678;2023-07-30T05:35:45;18.7;71.1
79513;SHT31;68962;51.980;5.678;2023-07-30T05:38:14;18.8;70.9
79513;SHT31;68962;51.980;5.678;2023-07-30T05:40:44;18.9;70.4
79513;SHT31;68962;51.980;5.678;2023-07-30T05:43:16;19.0;69.9
79513;SHT31;68962;51.980;5.678;2023-07-30T05:45:47;19.0;69.7
79513;SHT31;68962;51.980;5.678;2023-07-30T05:48:15;19.1;69.2
79513;SHT31;68962;51.980;5.678;2023-07-30T05:50:44;19.1;69.2
79513;SHT31;68962;51.980;5.678;2023-07-30T05:53:14;19.1;69.2
79513;SHT31;68962;51.980;5.678;2023-07-30T05:55:43;19.2;69.0
79513;SHT31;68962;51.980;5.678;2023-07-30T05:58:12;19.1;69.0
79513;SHT31;68962;51.980;5.678;2023-07-30T06:00:40;19.1;69.0
79513;SHT31;68962;51.980;5.678;2023-07-30T06:03:09;19.1;69.2
79513;SHT31;68962;51.980;5.678;2023-07-30T06:05:41;19.0;69.4
79513;SHT31;68962;51.980;5.678;2023-07-30T06:08:10;19.0;69.6
79513;SHT31;68962;51.980;5.678;2023-07-30T06:10:38;19.0;69.8
79513;SHT31;68962;51.980;5.678;2023-07-30T06:13:07;19.0;69.6
79513;SHT31;68962;51.980;5.678;2023-07-30T06:15:36;19.0;69.9
79513;SHT31;68962;51.980;5.678;2023-07-30T06:18:04;19.0;70.0
79513;SHT31;68962;51.980;5.678;2023-07-30T06:20:33;19.0;70.1
79513;SHT31;68962;51.980;5.678;2023-07-30T06:23:01;19.0;69.9
79513;SHT31;68962;51.980;5.678;2023-07-30T06:25:31;19.0;69.9
79513;SHT31;68962;51.980;5.678;2023-07-30T06:27:59;19.0;70.2
79513;SHT31;68962;51.980;5.678;2023-07-30T06:30:28;19.0;70.2
79513;SHT31;68962;51.980;5.678;2023-07-30T06:32:57;19.0;70.0
79513;SHT31;68962;51.980;5.678;2023-07-30T06:35:25;19.0;69.8
79513;SHT31;68962;51.980;5.678;2023-07-30T06:37:54;19.1;69.6
79513;SHT31;68962;51.980;5.678;2023-07-30T06:40:23;19.1;69.7
79513;SHT31;68962;51.980;5.678;2023-07-30T06:42:51;19.1;69.5
79513;SHT31;68962;51.980;5.678;2023-07-30T06:45:20;19.2;69.3
79513;SHT31;68962;51.980;5.678;2023-07-30T06:47:49;19.2;69.5
79513;SHT31;68962;51.980;5.678;2023-07-30T06:50:18;19.3;69.6
79513;SHT31;68962;51.980;5.678;2023-07-30T06:52:46;19.4;68.9
79513;SHT31;68962;51.980;5.678;2023-07-30T06:55:15;19.5;68.8
79513;SHT31;68962;51.980;5.678;2023-07-30T06:57:43;19.6;68.6
79513;SHT31;68962;51.980;5.678;2023-07-30T07:00:13;19.7;67.8
79513;SHT31;68962;51.980;5.678;2023-07-30T07:02:47;19.8;67.3
79513;SHT31;68962;51.980;5.678;2023-07-30T07:05:16;19.9;66.8
79513;SHT31;68962;51.980;5.678;2023-07-30T07:07:47;20.0;66.6
79513;SHT31;68962;51.980;5.678;2023-07-30T07:10:15;20.1;66.2
79513;SHT31;68962;51.980;5.678;2023-07-30T07:12:44;20.2;65.7
79513;SHT31;68962;51.980;5.678;2023-07-30T07:15:13;20.3;65.7
79513;SHT31;68962;51.980;5.678;2023-07-30T07:17:41;20.3;65.4
79513;SHT31;68962;51.980;5.678;2023-07-30T07:20:10;20.3;64.9
79513;SHT31;68962;51.980;5.678;2023-07-30T07:22:39;20.4;64.9
79513;SHT31;68962;51.980;5.678;2023-07-30T07:25:08;20.4;65.0
79513;SHT31;68962;51.980;5.678;2023-07-30T07:27:37;20.4;64.4
79513;SHT31;68962;51.980;5.678;2023-07-30T07:30:06;20.4;64.7
79513;SHT31;68962;51.980;5.678;2023-07-30T07:32:35;20.4;64.7
79513;SHT31;68962;51.980;5.678;2023-07-30T07:35:06;20.4;64.4
79513;SHT31;68962;51.980;5.678;2023-07-30T07:37:35;20.4;64.2
79513;SHT31;68962;51.980;5.678;2023-07-30T07:40:07;20.4;64.2
79513;SHT31;68962;51.980;5.678;2023-07-30T07:42:37;20.4;63.7
79513;SHT31;68962;51.980;5.678;2023-07-30T07:45:07;20.4;63.7
79513;SHT31;68962;51.980;5.678;2023-07-30T07:47:36;20.4;63.4
79513;SHT31;68962;51.980;5.678;2023-07-30T07:50:05;20.3;63.7
79513;SHT31;68962;51.980;5.678;2023-07-30T07:52:33;20.3;63.8
79513;SHT31;68962;51.980;5.678;2023-07-30T07:55:02;20.3;64.0
79513;SHT31;68962;51.980;5.678;2023-07-30T07:57:31;20.3;63.1
79513;SHT31;68962;51.980;5.678;2023-07-30T08:00:00;20.2;63.6
79513;SHT31;68962;51.980;5.678;2023-07-30T08:02:31;20.2;63.6
79513;SHT31;68962;51.980;5.678;2023-07-30T08:05:00;20.2;63.5
79513;SHT31;68962;51.980;5.678;2023-07-30T08:07:29;20.2;63.8
79513;SHT31;68962;51.980;5.678;2023-07-30T08:09:58;20.2;63.9
79513;SHT31;68962;51.980;5.678;2023-07-30T08:12:26;20.2;63.7
79513;SHT31;68962;51.980;5.678;2023-07-30T08:14:55;20.2;64.0
79513;SHT31;68962;51.980;5.678;2023-07-30T08:17:25;20.2;64.0
79513;SHT31;68962;51.980;5.678;2023-07-30T08:19:54;20.2;64.3
79513;SHT31;68962;51.980;5.678;2023-07-30T08:22:22;20.2;64.0
79513;SHT31;68962;51.980;5.678;2023-07-30T08:24:51;20.3;62.8
79513;SHT31;68962;51.980;5.678;2023-07-30T08:27:19;20.4;63.1
79513;SHT31;68962;51.980;5.678;2023-07-30T08:29:50;20.5;63.2
79513;SHT31;68962;51.980;5.678;2023-07-30T08:32:18;21.1;62.1
79513;SHT31;68962;51.980;5.678;2023-07-30T08:34:47;21.8;59.3
79513;SHT31;68962;51.980;5.678;2023-07-30T08:37:15;22.0;57.6
79513;SHT31;68962;51.980;5.678;2023-07-30T08:39:44;22.2;57.2
79513;SHT31;68962;51.980;5.678;2023-07-30T08:42:13;22.2;56.4
79513;SHT31;68962;51.980;5.678;2023-07-30T08:44:41;22.3;56.0
79513;SHT31;68962;51.980;5.678;2023-07-30T08:47:10;22.3;55.2
79513;SHT31;68962;51.980;5.678;2023-07-30T08:49:39;22.3;55.3
79513;SHT31;68962;51.980;5.678;2023-07-30T08:52:09;22.2;55.6
79513;SHT31;68962;51.980;5.678;2023-07-30T08:54:39;22.1;55.8
79513;SHT31;68962;51.980;5.678;2023-07-30T08:57:11;22.0;55.7
79513;SHT31;68962;51.980;5.678;2023-07-30T08:59:45;21.9;56.1
79513;SHT31;68962;51.980;5.678;2023-07-30T09:02:20;21.9;56.4
79513;SHT31;68962;51.980;5.678;2023-07-30T09:04:58;21.8;56.6
79513;SHT31;68962;51.980;5.678;2023-07-30T09:07:30;21.7;56.7
79513;SHT31;68962;51.980;5.678;2023-07-30T09:09:58;21.6;57.0
79513;SHT31;68962;51.980;5.678;2023-07-30T09:12:28;21.6;57.0
79513;SHT31;68962;51.980;5.678;2023-07-30T09:14:57;21.5;57.5
79513;SHT31;68962;51.980;5.678;2023-07-30T09:17:26;21.5;57.9
79513;SHT31;68962;51.980;5.678;2023-07-30T09:19:55;21.5;58.2
79513;SHT31;68962;51.980;5.678;2023-07-30T09:22:27;21.5;57.5
79513;SHT31;68962;51.980;5.678;2023-07-30T09:24:57;21.6;57.3
79513;SHT31;68962;51.980;5.678;2023-07-30T09:27:26;21.7;57.3
79513;SHT31;68962;51.980;5.678;2023-07-30T09:29:56;21.7;56.6
79513;SHT31;68962;51.980;5.678;2023-07-30T09:32:28;21.8;57.2
79513;SHT31;68962;51.980;5.678;2023-07-30T09:35:07;22.0;56.1
79513;SHT31;68962;51.980;5.678;2023-07-30T09:37:39;22.3;54.5
79513;SHT31;68962;51.980;5.678;2023-07-30T09:40:10;22.5;54.4
79513;SHT31;68962;51.980;5.678;2023-07-30T09:42:42;22.7;54.3
79513;SHT31;68962;51.980;5.678;2023-07-30T09:45:20;23.0;52.9
79513;SHT31;68962;51.980;5.678;2023-07-30T09:47:50;23.3;52.2
79513;SHT31;68962;51.980;5.678;2023-07-30T09:50:19;23.6;51.2
79513;SHT31;68962;51.980;5.678;2023-07-30T09:52:49;23.8;50.4
79513;SHT31;68962;51.980;5.678;2023-07-30T09:55:18;23.8;49.8
79513;SHT31;68962;51.980;5.678;2023-07-30T09:57:47;23.8;49.7
79513;SHT31;68962;51.980;5.678;2023-07-30T10:00:16;23.8;48.6
79513;SHT31;68962;51.980;5.678;2023-07-30T10:02:47;23.7;49.5
79513;SHT31;68962;51.980;5.678;2023-07-30T10:05:18;23.6;50.3
79513;SHT31;68962;51.980;5.678;2023-07-30T10:07:53;23.4;50.7
79513;SHT31;68962;51.980;5.678;2023-07-30T10:10:24;23.2;51.3
79513;SHT31;68962;51.980;5.678;2023-07-30T10:12:55;23.1;51.5
79513;SHT31;68962;51.980;5.678;2023-07-30T10:15:27;22.9;51.4
79513;SHT31;68962;51.980;5.678;2023-07-30T10:17:57;22.8;52.0
79513;SHT31;68962;51.980;5.678;2023-07-30T10:20:27;22.7;52.7
79513;SHT31;68962;51.980;5.678;2023-07-30T10:22:57;22.7;52.8
79513;SHT31;68962;51.980;5.678;2023-07-30T10:25:29;22.8;52.5
79513;SHT31;68962;51.980;5.678;2023-07-30T10:27:59;22.8;52.4
79513;SHT31;68962;51.980;5.678;2023-07-30T10:30:33;22.8;51.5
79513;SHT31;68962;51.980;5.678;2023-07-30T10:33:03;22.8;51.7
79513;SHT31;68962;51.980;5.678;2023-07-30T10:35:43;22.8;51.5
79513;SHT31;68962;51.980;5.678;2023-07-30T10:38:20;22.8;51.8
79513;SHT31;68962;51.980;5.678;2023-07-30T10:41:05;22.8;52.3
79513;SHT31;68962;51.980;5.678;2023-07-30T10:43:39;22.8;52.9
79513;SHT31;68962;51.980;5.678;2023-07-30T10:46:10;22.9;52.9
79513;SHT31;68962;51.980;5.678;2023-07-30T10:48:41;23.4;51.8
79513;SHT31;68962;51.980;5.678;2023-07-30T10:51:12;24.1;50.2
79513;SHT31;68962;51.980;5.678;2023-07-30T10:53:43;24.6;48.7
79513;SHT31;68962;51.980;5.678;2023-07-30T10:56:13;24.7;48.7
79513;SHT31;68962;51.980;5.678;2023-07-30T10:58:51;24.7;48.8
79513;SHT31;68962;51.980;5.678;2023-07-30T11:01:20;24.6;48.7
79513;SHT31;68962;51.980;5.678;2023-07-30T11:03:50;24.6;47.5
79513;SHT31;68962;51.980;5.678;2023-07-30T11:06:23;24.5;47.7
79513;SHT31;68962;51.980;5.678;2023-07-30T11:08:53;24.5;47.0
79513;SHT31;68962;51.980;5.678;2023-07-30T11:11:22;24.5;47.5
79513;SHT31;68962;51.980;5.678;2023-07-30T11:13:52;24.4;47.7
79513;SHT31;68962;51.980;5.678;2023-07-30T11:16:20;24.4;48.0
79513;SHT31;68962;51.980;5.678;2023-07-30T11:18:49;24.6;47.5
79513;SHT31;68962;51.980;5.678;2023-07-30T11:21:18;24.8;46.4
79513;SHT31;68962;51.980;5.678;2023-07-30T11:23:50;25.2;46.0
79513;SHT31;68962;51.980;5.678;2023-07-30T11:26:20;25.8;44.3
79513;SHT31;68962;51.980;5.678;2023-07-30T11:28:48;26.3;43.3
79513;SHT31;68962;51.980;5.678;2023-07-30T11:31:19;26.5;41.9
79513;SHT31;68962;51.980;5.678;2023-07-30T11:33:51;26.6;41.0
79513;SHT31;68962;51.980;5.678;2023-07-30T11:36:21;26.6;41.0
79513;SHT31;68962;51.980;5.678;2023-07-30T11:38:51;26.5;41.0
79513;SHT31;68962;51.980;5.678;2023-07-30T11:41:23;26.5;40.5
79513;SHT31;68962;51.980;5.678;2023-07-30T11:43:52;26.3;40.7
79513;SHT31;68962;51.980;5.678;2023-07-30T11:46:20;26.1;40.6
79513;SHT31;68962;51.980;5.678;2023-07-30T11:48:51;26.0;40.8
79513;SHT31;68962;51.980;5.678;2023-07-30T11:51:22;26.0;39.5
79513;SHT31;68962;51.980;5.678;2023-07-30T11:53:53;26.0;39.2
79513;SHT31;68962;51.980;5.678;2023-07-30T11:56:25;26.0;39.2
79513;SHT31;68962;51.980;5.678;2023-07-30T11:58:57;26.0;40.4
79513;SHT31;68962;51.980;5.678;2023-07-30T12:01:28;26.1;40.5
79513;SHT31;68962;51.980;5.678;2023-07-30T12:03:59;26.1;40.2
79513;SHT31;68962;51.980;5.678;2023-07-30T12:06:40;26.1;40.0
79513;SHT31;68962;51.980;5.678;2023-07-30T12:09:16;26.1;39.8
79513;SHT31;68962;51.980;5.678;2023-07-30T12:11:47;26.0;40.0
79513;SHT31;68962;51.980;5.678;2023-07-30T12:14:16;25.9;40.6
79513;SHT31;68962;51.980;5.678;2023-07-30T12:16:45;25.8;40.2
79513;SHT31;68962;51.980;5.678;2023-07-30T12:19:13;25.7;40.7
79513;SHT31;68962;51.980;5.678;2023-07-30T12:21:44;25.7;40.8
79513;SHT31;68962;51.980;5.678;2023-07-30T12:24:13;25.7;41.3
79513;SHT31;68962;51.980;5.678;2023-07-30T12:26:41;25.7;41.7
79513;SHT31;68962;51.980;5.678;2023-07-30T12:29:10;25.8;42.0
79513;SHT31;68962;51.980;5.678;2023-07-30T12:31:41;25.9;41.2
79513;SHT31;68962;51.980;5.678;2023-07-30T12:34:10;26.1;41.2
79513;SHT31;68962;51.980;5.678;2023-07-30T12:36:39;26.2;41.1
79513;SHT31;68962;51.980;5.678;2023-07-30T12:39:09;26.3;41.1
79513;SHT31;68962;51.980;5.678;2023-07-30T12:41:38;26.4;40.8
79513;SHT31;68962;51.980;5.678;2023-07-30T12:44:06;26.4;40.8
79513;SHT31;68962;51.980;5.678;2023-07-30T12:46:38;26.4;41.2
79513;SHT31;68962;51.980;5.678;2023-07-30T12:49:08;26.3;40.4
79513;SHT31;68962;51.980;5.678;2023-07-30T12:51:37;26.2;40.9
79513;SHT31;68962;51.980;5.678;2023-07-30T12:54:05;26.1;41.4
79513;SHT31;68962;51.980;5.678;2023-07-30T12:56:34;26.1;41.7
79513;SHT31;68962;51.980;5.678;2023-07-30T12:59:02;26.1;41.4
79513;SHT31;68962;51.980;5.678;2023-07-30T13:01:31;26.1;42.5
79513;SHT31;68962;51.980;5.678;2023-07-30T13:03:59;26.0;42.2
79513;SHT31;68962;51.980;5.678;2023-07-30T13:06:28;26.0;41.4
79513;SHT31;68962;51.980;5.678;2023-07-30T13:08:56;25.9;42.2
79513;SHT31;68962;51.980;5.678;2023-07-30T13:11:25;25.7;41.9
79513;SHT31;68962;51.980;5.678;2023-07-30T13:13:53;25.6;42.8
79513;SHT31;68962;51.980;5.678;2023-07-30T13:16:22;25.5;42.4
79513;SHT31;68962;51.980;5.678;2023-07-30T13:18:50;25.4;41.7
79513;SHT31;68962;51.980;5.678;2023-07-30T13:21:23;25.3;40.6
79513;SHT31;68962;51.980;5.678;2023-07-30T13:23:51;25.2;40.1
79513;SHT31;68962;51.980;5.678;2023-07-30T13:26:20;25.1;40.5
79513;SHT31;68962;51.980;5.678;2023-07-30T13:28:49;25.1;41.1
79513;SHT31;68962;51.980;5.678;2023-07-30T13:31:19;25.0;41.2
79513;SHT31;68962;51.980;5.678;2023-07-30T13:33:48;25.0;41.7
79513;SHT31;68962;51.980;5.678;2023-07-30T13:36:17;24.9;42.4
79513;SHT31;68962;51.980;5.678;2023-07-30T13:38:46;24.9;42.8
79513;SHT31;68962;51.980;5.678;2023-07-30T13:41:15;24.9;43.0
79513;SHT31;68962;51.980;5.678;2023-07-30T13:43:43;24.8;43.2
79513;SHT31;68962;51.980;5.678;2023-07-30T13:46:12;24.8;42.6
79513;SHT31;68962;51.980;5.678;2023-07-30T13:48:40;24.8;42.2
79513;SHT31;68962;51.980;5.678;2023-07-30T13:51:09;24.8;41.6
79513;SHT31;68962;51.980;5.678;2023-07-30T13:53:37;24.8;41.3
79513;SHT31;68962;51.980;5.678;2023-07-30T13:56:08;24.7;41.5
79513;SHT31;68962;51.980;5.678;2023-07-30T13:58:36;24.7;41.0
79513;SHT31;68962;51.980;5.678;2023-07-30T14:01:06;24.7;41.6
79513;SHT31;68962;51.980;5.678;2023-07-30T14:03:35;24.6;41.9
79513;SHT31;68962;51.980;5.678;2023-07-30T14:06:04;24.6;41.9
79513;SHT31;68962;51.980;5.678;2023-07-30T14:08:33;24.6;42.1
79513;SHT31;68962;51.980;5.678;2023-07-30T14:11:01;24.6;41.7
79513;SHT31;68962;51.980;5.678;2023-07-30T14:13:30;24.5;41.8
79513;SHT31;68962;51.980;5.678;2023-07-30T14:16:00;24.5;41.7
79513;SHT31;68962;51.980;5.678;2023-07-30T14:18:29;24.4;42.4
79513;SHT31;68962;51.980;5.678;2023-07-30T14:20:58;24.4;40.8
79513;SHT31;68962;51.980;5.678;2023-07-30T14:23:26;24.4;40.6
79513;SHT31;68962;51.980;5.678;2023-07-30T14:25:55;24.4;40.5
79513;SHT31;68962;51.980;5.678;2023-07-30T14:28:24;24.3;40.5
79513;SHT31;68962;51.980;5.678;2023-07-30T14:30:52;24.3;40.7
79513;SHT31;68962;51.980;5.678;2023-07-30T14:33:21;24.3;41.3
79513;SHT31;68962;51.980;5.678;2023-07-30T14:35:49;24.3;42.1
79513;SHT31;68962;51.980;5.678;2023-07-30T14:38:18;24.3;42.3
79513;SHT31;68962;51.980;5.678;2023-07-30T14:40:46;24.2;41.8
79513;SHT31;68962;51.980;5.678;2023-07-30T14:43:15;24.2;41.1
79513;SHT31;68962;51.980;5.678;2023-07-30T14:50:32;24.4;42.0
79513;SHT31;68962;51.980;5.678;2023-07-30T14:53:08;24.6;41.8
79513;SHT31;68962;51.980;5.678;2023-07-30T15:00:33;25.0;39.9
79513;SHT31;68962;51.980;5.678;2023-07-30T15:03:03;25.1;39.9
79513;SHT31;68962;51.980;5.678;2023-07-30T15:10:29;25.2;40.0
79513;SHT31;68962;51.980;5.678;2023-07-30T15:12:57;25.3;39.7
79513;SHT31;68962;51.980;5.678;2023-07-30T15:15:30;25.3;39.6
79513;SHT31;68962;51.980;5.678;2023-07-30T15:17:58;25.3;39.3
79513;SHT31;68962;51.980;5.678;2023-07-30T15:20:27;25.3;39.6
79513;SHT31;68962;51.980;5.678;2023-07-30T15:22:59;25.4;40.3
79513;SHT31;68962;51.980;5.678;2023-07-30T15:25:29;25.4;40.0
79513;SHT31;68962;51.980;5.678;2023-07-30T15:28:07;25.5;40.1
79513;SHT31;68962;51.980;5.678;2023-07-30T15:30:49;25.5;40.2
79513;SHT31;68962;51.980;5.678;2023-07-30T15:33:26;25.6;40.2
79513;SHT31;68962;51.980;5.678;2023-07-30T15:35:54;25.6;39.8
79513;SHT31;68962;51.980;5.678;2023-07-30T15:38:23;25.5;39.0
79513;SHT31;68962;51.980;5.678;2023-07-30T15:40:51;25.4;39.4
79513;SHT31;68962;51.980;5.678;2023-07-30T15:43:20;25.3;39.6
79513;SHT31;68962;51.980;5.678;2023-07-30T15:45:51;25.2;39.5
79513;SHT31;68962;51.980;5.678;2023-07-30T15:48:25;25.1;39.5
79513;SHT31;68962;51.980;5.678;2023-07-30T15:50:53;25.1;39.2
79513;SHT31;68962;51.980;5.678;2023-07-30T15:53:23;25.0;39.2
79513;SHT31;68962;51.980;5.678;2023-07-30T15:55:54;25.0;39.2
79513;SHT31;68962;51.980;5.678;2023-07-30T15:58:22;24.9;39.7
79513;SHT31;68962;51.980;5.678;2023-07-30T16:00:51;24.9;39.7
79513;SHT31;68962;51.980;5.678;2023-07-30T16:03:20;24.8;40.1
79513;SHT31;68962;51.980;5.678;2023-07-30T16:05:49;24.8;40.4
79513;SHT31;68962;51.980;5.678;2023-07-30T16:08:22;24.7;40.4
79513;SHT31;68962;51.980;5.678;2023-07-30T16:11:04;24.7;41.3
79513;SHT31;68962;51.980;5.678;2023-07-30T16:13:34;24.6;41.1
79513;SHT31;68962;51.980;5.678;2023-07-30T16:16:09;24.6;41.2
79513;SHT31;68962;51.980;5.678;2023-07-30T16:18:38;24.5;41.8
79513;SHT31;68962;51.980;5.678;2023-07-30T16:21:09;24.4;42.0
79513;SHT31;68962;51.980;5.678;2023-07-30T16:23:38;24.4;42.8
79513;SHT31;68962;51.980;5.678;2023-07-30T16:26:07;24.4;43.0
79513;SHT31;68962;51.980;5.678;2023-07-30T16:28:35;24.3;43.1
79513;SHT31;68962;51.980;5.678;2023-07-30T16:31:04;24.3;43.3
79513;SHT31;68962;51.980;5.678;2023-07-30T16:33:34;24.2;43.6
79513;SHT31;68962;51.980;5.678;2023-07-30T16:36:03;24.2;43.6